createdAt,value
2019-05-03T00:00:22.305Z,7.75
2019-05-03T00:03:01.694Z,8.93
2019-05-03T00:05:45.240Z,8.00
2019-05-03T00:08:13.313Z,7.70
2019-05-03T00:10:42.507Z,9.27
2019-05-03T00:13:32.510Z,8.40
2019-05-03T00:16:13.492Z,8.57
2019-05-03T00:18:42.197Z,10.00
2019-05-03T00:21:11.686Z,11.03
2019-05-03T00:23:41.629Z,10.57
2019-05-03T00:26:09.545Z,10.87
2019-05-03T00:28:37.516Z,9.50
2019-05-03T00:31:05.412Z,10.00
2019-05-03T00:33:34.707Z,8.70
2019-05-03T00:36:32.805Z,9.47
2019-05-03T00:39:14.347Z,8.97
2019-05-03T00:41:42.600Z,10.80
2019-05-03T00:44:11.574Z,11.33
2019-05-03T00:46:39.449Z,10.30
2019-05-03T00:49:07.379Z,10.80
2019-05-03T00:51:35.274Z,10.48
2019-05-03T00:54:03.293Z,11.47
2019-05-03T00:56:32.132Z,11.97
2019-05-03T00:59:02.024Z,11.73
2019-05-03T01:01:31.940Z,13.70
2019-05-03T01:04:01.670Z,13.70
2019-05-03T01:06:31.694Z,14.70
2019-05-03T01:08:59.624Z,15.55
2019-05-03T01:11:27.481Z,14.70
2019-05-03T01:13:55.405Z,15.13
2019-05-03T01:16:24.658Z,14.23
2019-05-03T01:18:52.599Z,13.47
2019-05-03T01:21:22.640Z,13.60
2019-05-03T01:23:52.291Z,14.58
2019-05-03T01:26:22.463Z,15.90
2019-05-03T01:28:52.126Z,14.83
2019-05-03T01:31:20.160Z,14.10
2019-05-03T01:33:48.049Z,14.10
2019-05-03T01:36:15.905Z,13.75
2019-05-03T01:38:43.835Z,16.07
2019-05-03T01:41:12.307Z,16.45
2019-05-03T01:43:41.790Z,14.75
2019-05-03T01:46:11.873Z,16.03
2019-05-03T01:48:52.812Z,16.50
2019-05-03T01:51:38.652Z,15.57
2019-05-03T01:54:06.650Z,14.80
2019-05-03T01:56:34.618Z,15.63
2019-05-03T01:59:02.550Z,12.07
2019-05-03T02:01:37.371Z,11.65
2019-05-03T02:04:23.574Z,11.12
2019-05-03T02:06:51.949Z,10.63
2019-05-03T02:09:21.557Z,7.95
2019-05-03T02:11:49.661Z,10.55
2019-05-03T02:14:17.588Z,9.73
2019-05-03T02:16:45.474Z,10.70
2019-05-03T02:19:13.410Z,8.13
2019-05-03T02:21:41.698Z,9.65
2019-05-03T02:24:11.647Z,7.80
2019-05-03T02:26:39.474Z,9.05
2019-05-03T02:29:07.452Z,7.05
2019-05-03T02:31:35.390Z,6.37
2019-05-03T02:34:03.724Z,7.20
2019-05-03T02:36:33.769Z,6.92
2019-05-03T02:39:02.889Z,6.53
2019-05-03T02:41:32.478Z,6.17
2019-05-03T02:44:00.484Z,6.20
2019-05-03T02:47:06.340Z,7.35
2019-05-03T02:49:56.223Z,6.53
2019-05-03T02:52:37.528Z,5.75
2019-05-03T02:55:09.733Z,5.90
2019-05-03T02:57:37.644Z,5.78
2019-05-03T03:00:09.550Z,6.53
2019-05-03T03:02:38.588Z,5.25
2019-05-03T03:05:08.300Z,4.92
2019-05-03T03:07:37.685Z,4.50
2019-05-03T03:10:06.708Z,5.53
2019-05-03T03:12:35.827Z,5.72
2019-05-03T03:15:06.256Z,5.35
2019-05-03T03:17:36.450Z,5.87
2019-05-03T03:20:06.399Z,5.85
2019-05-03T03:22:40.984Z,5.92
2019-05-03T03:25:17.546Z,6.00
2019-05-03T03:27:49.119Z,5.70
2019-05-03T03:30:48.812Z,5.75
2019-05-03T03:33:17.716Z,5.70
2019-05-03T03:35:49.218Z,6.33
2019-05-03T03:38:17.441Z,5.45
2019-05-03T03:40:46.420Z,6.42
2019-05-03T03:43:15.709Z,5.35
2019-05-03T03:45:45.464Z,6.42
2019-05-03T03:48:18.341Z,6.20
2019-05-03T03:50:49.825Z,7.30
2019-05-03T03:53:19.582Z,6.97
2019-05-03T03:55:47.572Z,5.87
2019-05-03T03:58:22.552Z,6.40
2019-05-03T04:00:46.481Z,7.17
2019-05-03T04:03:15.858Z,6.15
2019-05-03T04:05:46.727Z,6.70
2019-05-03T04:08:16.114Z,6.72
2019-05-03T04:10:46.390Z,6.65
2019-05-03T04:13:16.026Z,6.40
2019-05-03T04:15:57.512Z,6.20
2019-05-03T04:18:51.991Z,6.55
2019-05-03T04:21:19.967Z,6.33
2019-05-03T04:23:48.876Z,5.65
2019-05-03T04:26:16.757Z,5.60
2019-05-03T04:28:45.435Z,5.75
2019-05-03T04:31:15.254Z,5.47
2019-05-03T04:33:45.177Z,5.03
2019-05-03T04:36:15.952Z,6.53
2019-05-03T04:38:45.314Z,5.42
2019-05-03T04:41:15.906Z,5.03
2019-05-03T04:43:45.849Z,5.95
2019-05-03T04:46:22.112Z,5.50
2019-05-03T04:48:50.032Z,5.25
2019-05-03T04:51:17.983Z,5.85
2019-05-03T04:53:51.515Z,4.83
2019-05-03T04:56:19.446Z,5.42
2019-05-03T04:58:47.747Z,6.40
2019-05-03T05:01:15.982Z,6.25
2019-05-03T05:03:45.683Z,6.17
2019-05-03T05:06:15.394Z,6.37
2019-05-03T05:08:45.928Z,6.47
2019-05-03T05:11:15.826Z,6.15
2019-05-03T05:13:45.584Z,7.25
2019-05-03T05:16:15.836Z,5.95
2019-05-03T05:18:48.316Z,7.20
2019-05-03T05:21:32.897Z,7.08
2019-05-03T05:24:02.402Z,7.10
2019-05-03T05:26:49.905Z,6.70
2019-05-03T05:29:20.337Z,6.95
2019-05-03T05:31:48.265Z,6.90
2019-05-03T05:34:16.162Z,6.90
2019-05-03T05:36:45.082Z,6.87
2019-05-03T05:39:18.693Z,6.72
2019-05-03T05:41:46.173Z,8.65
2019-05-03T05:44:14.561Z,8.83
2019-05-03T05:46:59.798Z,11.15
2019-05-03T05:50:07.111Z,11.00
2019-05-03T05:52:35.403Z,12.03
2019-05-03T05:55:41.682Z,12.73
2019-05-03T05:58:15.736Z,12.37
2019-05-03T06:00:49.793Z,11.53
2019-05-03T06:03:17.990Z,12.10
2019-05-03T06:05:46.367Z,11.83
2019-05-03T06:08:35.994Z,10.43
2019-05-03T06:11:32.471Z,10.45
2019-05-03T06:14:06.198Z,11.15
2019-05-03T06:16:39.866Z,10.72
2019-05-03T06:19:15.154Z,11.55
2019-05-03T06:22:05.865Z,11.27
2019-05-03T06:24:38.793Z,10.63
2019-05-03T06:27:18.545Z,10.90
2019-05-03T06:29:48.364Z,10.47
2019-05-03T06:32:29.765Z,9.65
2019-05-03T06:34:57.728Z,8.90
2019-05-03T06:37:28.613Z,9.33
2019-05-03T06:39:56.560Z,6.97
2019-05-03T06:42:25.528Z,5.83
2019-05-03T06:44:54.629Z,6.67
2019-05-03T06:47:22.744Z,7.60
2019-05-03T06:49:50.743Z,7.43
2019-05-03T06:52:19.893Z,5.53
2019-05-03T06:54:48.973Z,5.23
2019-05-03T06:57:19.718Z,5.43
2019-05-03T07:00:10.093Z,4.77
2019-05-03T07:02:45.020Z,6.27
2019-05-03T07:05:25.628Z,5.90
2019-05-03T07:08:19.364Z,5.33
2019-05-03T07:10:50.486Z,5.53
2019-05-03T07:13:18.430Z,5.93
2019-05-03T07:15:46.422Z,5.97
2019-05-03T07:18:15.709Z,6.60
2019-05-03T07:20:54.952Z,7.93
2019-05-03T07:23:24.358Z,7.05
2019-05-03T07:25:52.392Z,7.20
2019-05-03T07:28:20.495Z,6.80
2019-05-03T07:30:48.492Z,6.73
2019-05-03T07:33:22.675Z,6.27
2019-05-03T07:35:50.671Z,6.87
2019-05-03T07:38:18.876Z,7.30
2019-05-03T07:40:46.835Z,7.47
2019-05-03T07:43:14.990Z,6.92
2019-05-03T07:45:44.670Z,7.45
2019-05-03T07:48:14.891Z,8.00
2019-05-03T07:50:44.597Z,6.30
2019-05-03T07:53:12.464Z,6.58
2019-05-03T07:55:58.487Z,7.85
2019-05-03T07:58:26.627Z,6.78
2019-05-03T08:01:06.200Z,6.72
2019-05-03T08:03:27.205Z,7.10
2019-05-03T08:05:55.416Z,6.40
2019-05-03T08:08:25.119Z,6.65
2019-05-03T08:10:55.013Z,6.28
2019-05-03T08:13:25.106Z,7.67
2019-05-03T08:15:53.008Z,6.33
2019-05-03T08:18:21.285Z,6.20
2019-05-03T08:20:49.212Z,6.10
2019-05-03T08:23:26.756Z,5.62
2019-05-03T08:25:47.083Z,5.30
2019-05-03T08:28:15.057Z,5.33
2019-05-03T08:31:01.567Z,4.80
2019-05-03T08:33:47.197Z,4.60
2019-05-03T08:36:15.732Z,5.03
2019-05-03T08:38:45.231Z,4.67
2019-05-03T08:41:16.612Z,4.87
2019-05-03T08:43:44.788Z,5.67
2019-05-03T08:46:14.856Z,5.17
2019-05-03T08:48:42.913Z,4.93
2019-05-03T08:51:10.937Z,5.20
2019-05-03T08:53:38.966Z,4.80
2019-05-03T08:56:06.929Z,4.93
2019-05-03T08:58:34.980Z,5.27
2019-05-03T09:01:05.709Z,4.93
2019-05-03T09:03:36.407Z,4.80
2019-05-03T09:06:04.648Z,4.73
2019-05-03T09:08:35.143Z,4.70
2019-05-03T09:11:10.301Z,5.47
2019-05-03T09:13:53.165Z,5.23
2019-05-03T09:16:25.033Z,4.93
2019-05-03T09:18:54.759Z,5.20
2019-05-03T09:21:22.958Z,4.60
2019-05-03T09:23:50.927Z,4.50
2019-05-03T09:26:18.866Z,5.17
2019-05-03T09:28:46.862Z,5.20
2019-05-03T09:31:15.566Z,4.03
2019-05-03T09:33:45.154Z,4.70
2019-05-03T09:36:14.756Z,4.10
2019-05-03T09:38:43.157Z,4.20
2019-05-03T09:41:11.139Z,4.30
2019-05-03T09:43:39.090Z,4.33
2019-05-03T09:46:07.089Z,4.50
2019-05-03T09:48:35.043Z,4.50
2019-05-03T09:51:05.043Z,4.83
2019-05-03T09:53:39.090Z,4.50
2019-05-03T09:56:08.220Z,4.30
2019-05-03T09:58:38.133Z,4.20
2019-05-03T10:01:12.065Z,4.80
2019-05-03T10:03:40.120Z,4.30
2019-05-03T10:06:08.084Z,4.13
2019-05-03T10:08:36.051Z,4.50
2019-05-03T10:11:10.121Z,4.57
2019-05-03T10:13:41.448Z,4.47
2019-05-03T10:16:08.052Z,4.67
2019-05-03T10:18:36.125Z,4.20
2019-05-03T10:21:05.304Z,4.67
2019-05-03T10:23:39.861Z,4.90
2019-05-03T10:26:09.069Z,4.20
2019-05-03T10:28:37.153Z,4.60
2019-05-03T10:31:07.706Z,4.70
2019-05-03T10:33:44.996Z,4.73
2019-05-03T10:36:15.193Z,3.87
2019-05-03T10:38:42.935Z,4.00
2019-05-03T10:41:10.891Z,3.63
2019-05-03T10:43:38.881Z,4.20
2019-05-03T10:46:06.862Z,4.20
2019-05-03T10:48:35.589Z,4.40
2019-05-03T10:51:04.693Z,4.27
2019-05-03T10:53:39.079Z,3.67
2019-05-03T10:56:26.727Z,3.77
2019-05-03T10:59:01.434Z,4.20
2019-05-03T11:01:47.324Z,3.73
2019-05-03T11:04:15.259Z,3.90
2019-05-03T11:06:45.512Z,3.30
2019-05-03T11:09:15.333Z,3.67
2019-05-03T11:11:45.191Z,3.80
2019-05-03T11:14:14.758Z,3.03
2019-05-03T11:16:42.826Z,4.00
2019-05-03T11:19:10.761Z,3.40
2019-05-03T11:21:38.667Z,2.90
2019-05-03T11:24:06.708Z,4.10
2019-05-03T11:26:35.305Z,2.80
2019-05-03T11:29:05.177Z,3.17
2019-05-03T11:31:55.975Z,3.40
2019-05-03T11:34:27.185Z,3.20
2019-05-03T11:37:25.157Z,2.30
2019-05-03T11:39:53.234Z,2.80
2019-05-03T11:42:21.220Z,2.70
2019-05-03T11:44:49.333Z,2.63
2019-05-03T11:47:17.303Z,2.97
2019-05-03T11:49:45.597Z,3.13
2019-05-03T11:52:15.874Z,2.00
2019-05-03T11:54:45.273Z,2.53
2019-05-03T11:57:21.138Z,2.47
2019-05-03T11:59:49.179Z,2.30
2019-05-03T12:02:35.663Z,2.37
2019-05-03T12:05:05.906Z,2.63
2019-05-03T12:07:39.969Z,2.83
2019-05-03T12:10:15.028Z,2.57
2019-05-03T12:12:38.003Z,2.43
2019-05-03T12:15:06.055Z,2.47
2019-05-03T12:17:50.515Z,2.47
2019-05-03T12:20:09.004Z,2.40
2019-05-03T12:22:38.218Z,2.80
2019-05-03T12:25:10.487Z,2.70
2019-05-03T12:27:37.591Z,2.20
2019-05-03T12:30:06.178Z,2.30
2019-05-03T12:32:34.591Z,2.50
2019-05-03T12:35:02.853Z,3.10
2019-05-03T12:37:31.024Z,2.47
2019-05-03T12:39:58.979Z,2.53
2019-05-03T12:42:27.046Z,3.07
2019-05-03T12:44:55.525Z,2.47
2019-05-03T12:47:25.168Z,2.80
2019-05-03T12:49:55.740Z,2.83
2019-05-03T12:52:26.243Z,2.77
2019-05-03T12:54:55.080Z,2.57
2019-05-03T12:57:24.842Z,2.27
2019-05-03T12:59:59.371Z,2.63
2019-05-03T13:02:33.947Z,2.40
2019-05-03T13:05:02.291Z,2.63
2019-05-03T13:07:45.526Z,1.80
2019-05-03T13:10:21.604Z,2.30
2019-05-03T13:12:52.747Z,1.93
2019-05-03T13:15:16.611Z,2.50
2019-05-03T13:17:44.702Z,3.40
2019-05-03T13:20:14.351Z,3.23
2019-05-03T13:22:42.391Z,2.43
2019-05-03T13:25:10.776Z,2.30
2019-05-03T13:27:39.157Z,2.60
2019-05-03T13:30:10.089Z,2.70
2019-05-03T13:32:38.074Z,2.40
2019-05-03T13:35:06.359Z,2.53
2019-05-03T13:37:35.853Z,2.27
2019-05-03T13:40:05.376Z,2.73
2019-05-03T13:42:35.033Z,3.10
2019-05-03T13:45:04.845Z,2.47
2019-05-03T13:47:34.916Z,2.97
2019-05-03T13:50:03.979Z,2.87
2019-05-03T13:52:32.064Z,2.50
2019-05-03T13:55:00.019Z,3.37
2019-05-03T13:57:28.072Z,2.30
2019-05-03T13:59:56.247Z,2.23
2019-05-03T14:02:27.192Z,2.37
2019-05-03T14:04:55.715Z,2.47
2019-05-03T14:07:23.706Z,2.03
2019-05-03T14:09:51.629Z,2.50
2019-05-03T14:12:19.586Z,2.57
2019-05-03T14:14:55.889Z,2.40
2019-05-03T14:17:26.727Z,2.07
2019-05-03T14:20:10.409Z,2.20
2019-05-03T14:22:40.784Z,1.97
2019-05-03T14:25:08.852Z,2.53
2019-05-03T14:27:37.862Z,2.37
2019-05-03T14:30:06.018Z,1.80
2019-05-03T14:32:35.947Z,2.17
2019-05-03T14:35:04.502Z,2.30
2019-05-03T14:37:32.566Z,2.30
2019-05-03T14:40:00.614Z,2.13
2019-05-03T14:42:28.623Z,2.37
2019-05-03T14:44:56.585Z,2.40
2019-05-03T14:47:25.249Z,2.27
2019-05-03T14:49:54.603Z,2.20
2019-05-03T14:52:25.126Z,1.90
2019-05-03T14:54:55.821Z,2.03
2019-05-03T14:57:30.618Z,2.77
2019-05-03T15:00:18.207Z,1.80
2019-05-03T15:02:51.330Z,2.10
2019-05-03T15:05:21.403Z,2.27
2019-05-03T15:07:49.427Z,2.33
2019-05-03T15:10:17.735Z,2.40
2019-05-03T15:12:45.712Z,2.27
2019-05-03T15:15:14.756Z,2.47
2019-05-03T15:17:43.007Z,2.13
2019-05-03T15:20:10.977Z,2.20
2019-05-03T15:22:38.967Z,2.43
2019-05-03T15:25:07.266Z,2.30
2019-05-03T15:27:35.479Z,2.27
2019-05-03T15:30:04.900Z,3.60
2019-05-03T15:32:35.232Z,2.10
2019-05-03T15:35:04.807Z,2.63
2019-05-03T15:37:32.930Z,2.43
2019-05-03T15:40:00.903Z,2.10
2019-05-03T15:42:29.576Z,2.70
2019-05-03T15:45:11.660Z,2.33
2019-05-03T15:47:45.283Z,1.93
2019-05-03T15:50:15.434Z,2.07
2019-05-03T15:52:44.472Z,1.90
2019-05-03T15:55:12.760Z,2.07
2019-05-03T15:57:40.780Z,4.13
2019-05-03T16:00:10.936Z,2.30
2019-05-03T16:02:40.983Z,2.20
2019-05-03T16:05:08.965Z,2.10
2019-05-03T16:07:36.947Z,2.93
2019-05-03T16:10:05.161Z,5.93
2019-05-03T16:12:34.455Z,3.53
2019-05-03T16:15:04.536Z,6.40
2019-05-03T16:17:32.634Z,2.87
2019-05-03T16:20:00.845Z,2.37
2019-05-03T16:22:28.951Z,2.67
2019-05-03T16:24:57.129Z,2.70
2019-05-03T16:27:47.867Z,2.60
2019-05-03T16:30:41.592Z,2.33
2019-05-03T16:33:22.491Z,3.97
2019-05-03T16:35:39.502Z,2.87
2019-05-03T16:38:07.451Z,2.20
2019-05-03T16:40:35.553Z,2.63
2019-05-03T16:43:04.691Z,6.13
2019-05-03T16:45:34.912Z,2.30
2019-05-03T16:48:04.486Z,5.13
2019-05-03T16:50:34.533Z,5.23
2019-05-03T16:53:02.853Z,9.60
2019-05-03T16:55:30.986Z,3.27
2019-05-03T16:57:59.041Z,3.07
2019-05-03T17:00:26.970Z,5.80
2019-05-03T17:02:55.203Z,9.07
2019-05-03T17:05:42.850Z,8.53
2019-05-03T17:08:29.268Z,6.73
2019-05-03T17:10:59.048Z,2.80
2019-05-03T17:13:29.313Z,6.80
2019-05-03T17:15:57.416Z,6.60
2019-05-03T17:18:25.607Z,3.80
2019-05-03T17:20:54.771Z,7.67
2019-05-03T17:23:24.601Z,3.20
2019-05-03T17:25:53.380Z,3.40
2019-05-03T17:28:21.528Z,2.87
2019-05-03T17:30:49.717Z,2.73
2019-05-03T17:33:17.819Z,2.10
2019-05-03T17:35:48.940Z,2.30
2019-05-03T17:38:17.998Z,2.50
2019-05-03T17:40:57.813Z,2.80
2019-05-03T17:43:34.515Z,3.20
2019-05-03T17:46:04.365Z,2.50
2019-05-03T17:48:36.756Z,2.93
2019-05-03T17:51:10.363Z,2.90
2019-05-03T17:53:47.056Z,3.23
2019-05-03T17:56:35.150Z,2.80
2019-05-03T17:59:25.810Z,2.47
2019-05-03T18:02:11.795Z,3.63
2019-05-03T18:05:00.539Z,2.43
2019-05-03T18:07:39.976Z,2.23
2019-05-03T18:10:09.036Z,2.83
2019-05-03T18:12:37.429Z,2.77
2019-05-03T18:15:05.808Z,2.40
2019-05-03T18:17:35.252Z,2.70
2019-05-03T18:20:04.548Z,2.53
2019-05-03T18:22:32.598Z,2.80
2019-05-03T18:25:00.779Z,2.83
2019-05-03T18:27:29.561Z,2.80
2019-05-03T18:29:58.109Z,2.37
2019-05-03T18:32:26.207Z,3.07
2019-05-03T18:34:54.710Z,2.90
2019-05-03T18:37:24.484Z,2.33
2019-05-03T18:39:54.646Z,2.17
2019-05-03T18:42:32.045Z,2.37
2019-05-03T18:45:04.678Z,2.30
2019-05-03T18:47:34.399Z,3.20
2019-05-03T18:50:04.352Z,2.50
2019-05-03T18:52:34.357Z,3.20
2019-05-03T18:55:04.422Z,3.03
2019-05-03T18:57:32.668Z,2.50
2019-05-03T19:00:00.702Z,2.87
2019-05-03T19:02:28.776Z,2.90
2019-05-03T19:04:56.995Z,3.20
2019-05-03T19:07:45.295Z,3.00
2019-05-03T19:10:38.519Z,2.80
2019-05-03T19:13:16.800Z,2.60
2019-05-03T19:15:44.948Z,2.72
2019-05-03T19:18:35.270Z,2.58
2019-05-03T19:21:07.558Z,3.42
2019-05-03T19:23:35.667Z,3.33
2019-05-03T19:26:05.576Z,3.42
2019-05-03T19:28:35.413Z,4.12
2019-05-03T19:31:05.481Z,3.50
2019-05-03T19:33:34.770Z,3.83
2019-05-03T19:36:04.513Z,3.30
2019-05-03T19:38:34.974Z,3.47
2019-05-03T19:41:03.031Z,3.30
2019-05-03T19:43:31.329Z,4.28
2019-05-03T19:45:59.628Z,3.67
2019-05-03T19:48:27.798Z,5.97
2019-05-03T19:50:55.973Z,5.60
2019-05-03T19:53:49.632Z,4.47
2019-05-03T19:56:19.276Z,4.10
2019-05-03T19:58:47.427Z,4.60
2019-05-03T20:01:41.296Z,4.08
2019-05-03T20:04:35.512Z,4.30
2019-05-03T20:07:20.688Z,4.77
2019-05-03T20:09:49.060Z,4.67
2019-05-03T20:12:17.375Z,5.00
2019-05-03T20:14:45.610Z,3.45
2019-05-03T20:17:14.832Z,4.10
2019-05-03T20:19:45.059Z,4.30
2019-05-03T20:22:15.160Z,4.13
2019-05-03T20:24:44.773Z,4.70
2019-05-03T20:27:12.881Z,4.78
2019-05-03T20:29:43.533Z,3.92
2019-05-03T20:32:11.359Z,4.40
2019-05-03T20:34:39.482Z,4.62
2019-05-03T20:37:07.657Z,4.90
2019-05-03T20:39:35.928Z,5.20
2019-05-03T20:42:04.530Z,5.87
2019-05-03T20:44:39.769Z,5.45
2019-05-03T20:47:40.006Z,5.60
2019-05-03T20:50:15.636Z,5.50
2019-05-03T20:52:45.379Z,6.80
2019-05-03T20:55:15.551Z,6.67
2019-05-03T20:57:44.407Z,7.93
2019-05-03T21:00:15.395Z,5.95
2019-05-03T21:02:53.432Z,6.22
2019-05-03T21:05:27.166Z,5.63
2019-05-03T21:07:46.509Z,6.22
2019-05-03T21:10:15.658Z,6.00
2019-05-03T21:12:43.981Z,5.47
2019-05-03T21:15:27.474Z,5.95
2019-05-03T21:18:15.212Z,5.72
2019-05-03T21:20:50.922Z,6.90
2019-05-03T21:23:20.499Z,5.40
2019-05-03T21:26:13.205Z,5.60
2019-05-03T21:28:37.550Z,5.33
2019-05-03T21:31:06.099Z,5.58
2019-05-03T21:33:35.488Z,6.28
2019-05-03T21:36:04.674Z,5.80
2019-05-03T21:38:32.804Z,6.35
2019-05-03T21:41:01.144Z,6.50
2019-05-03T21:43:29.226Z,6.20
2019-05-03T21:46:19.856Z,5.97
2019-05-03T21:48:55.397Z,6.00
2019-05-03T21:51:24.523Z,6.75
2019-05-03T21:53:52.768Z,6.08
2019-05-03T21:56:20.847Z,6.67
2019-05-03T21:58:48.855Z,6.25
2019-05-03T22:01:17.393Z,6.67
2019-05-03T22:03:45.598Z,6.25
2019-05-03T22:06:15.433Z,6.22
2019-05-03T22:08:45.533Z,5.80
2019-05-03T22:11:14.839Z,7.00
2019-05-03T22:13:45.465Z,7.55
2019-05-03T22:16:20.580Z,6.75
2019-05-03T22:18:48.940Z,7.35
2019-05-03T22:21:26.885Z,7.55
2019-05-03T22:24:17.538Z,7.67
2019-05-03T22:26:54.963Z,7.60
2019-05-03T22:29:25.210Z,7.40
2019-05-03T22:31:54.697Z,7.70
2019-05-03T22:34:23.043Z,7.17
2019-05-03T22:36:51.087Z,7.33
2019-05-03T22:39:19.034Z,7.20
2019-05-03T22:41:47.122Z,7.50
2019-05-03T22:44:17.100Z,7.20
2019-05-03T22:46:45.118Z,7.97
2019-05-03T22:49:15.444Z,8.18
2019-05-03T22:51:44.996Z,8.23
2019-05-03T22:54:15.189Z,8.08
2019-05-03T22:56:44.596Z,8.33
2019-05-03T22:59:14.747Z,7.80
2019-05-03T23:01:42.959Z,7.65
2019-05-03T23:04:11.028Z,8.90
2019-05-03T23:06:39.025Z,7.92
2019-05-03T23:09:07.119Z,9.18
2019-05-03T23:11:35.412Z,8.00
2019-05-03T23:14:05.029Z,7.87
2019-05-03T23:16:35.652Z,8.28
2019-05-03T23:19:05.537Z,8.88
2019-05-03T23:21:56.469Z,8.53
2019-05-03T23:24:24.787Z,8.13
2019-05-03T23:26:53.171Z,8.28
2019-05-03T23:29:23.022Z,8.80
2019-05-03T23:31:51.050Z,8.75
2019-05-03T23:34:18.978Z,8.38
2019-05-03T23:36:46.964Z,8.15
2019-05-03T23:39:15.006Z,7.97
2019-05-03T23:41:42.982Z,8.58
2019-05-03T23:44:10.979Z,9.45
2019-05-03T23:46:45.471Z,8.28
2019-05-03T23:49:14.507Z,10.25
2019-05-03T23:51:49.443Z,11.35
2019-05-03T23:54:20.301Z,11.65
2019-05-03T23:56:49.692Z,12.60
2019-05-03T23:59:17.694Z,12.18
